Hrossey — VSTY6 — position and weather

sailwx.info

Track history (hours):
 
Tides and Currents Weather Stations Pressure Air Temp Water Temp Dewpoint Dewpoint Depression Visibility Wind Speed Wind Dir Waves Ship Positions

Hrossey

Operator: NorthLink Orkey & Shetland Ferries Ltd

Last reported at 2017-Jan-21 00:23 UTC. Time now 2017-Jan-21 04:27 UTC.
Position N 58°58' W 002°38'.

Length 125 m; draft 5.4 m.

Type: Passenger vessel. MMSI: 235448000.

Date/timePositionNaut miles runAvg speedWind from/ knotsBaromVisibWave heightAir tempDewpointWater temp
2017-Jan-21 00:23N 58°58' W 002°38'1112.4
2017-Jan-20 23:33N 58°60' W 002°58'0 0.0
2017-Jan-20 22:33N 58°60' W 002°58'16 0.8
2017-Jan-20 01:12N 59°04' W 002°28'913.4
2017-Jan-20 00:33N 59°01' W 002°43'8 7.8
2017-Jan-19 23:33N 58°60' W 002°58'4 4.2
2017-Jan-19 22:31N 59°01' W 002°50'9222.9
2017-Jan-19 18:29N 57°36' W 001°40'2320.8
2017-Jan-19 17:23N 57°15' W 001°54'810.2
2017-Jan-19 16:33N 57°09' W 002°05'0 0.0
2017-Jan-19 15:33N 57°09' W 002°05'0 0.0
2017-Jan-19 14:33N 57°09' W 002°05'0 0.0
2017-Jan-19 13:33N 57°09' W 002°05'0 0.0
2017-Jan-19 12:33N 57°09' W 002°05'0 0.0
2017-Jan-19 11:33N 57°09' W 002°05'0 0.0
2017-Jan-19 10:33N 57°09' W 002°05'0 0.0
2017-Jan-19 09:33N 57°09' W 002°05'0 0.0
2017-Jan-19 08:33N 57°09' W 002°05'0 0.0
2017-Jan-19 07:33N 57°09' W 002°05'0 0.5
2017-Jan-19 06:33N 57°09' W 002°05'1413.6
2017-Jan-19 05:33N 57°19' W 001°47'1515.2
2017-Jan-19 04:33N 57°33' W 001°40'9020.8
2017-Jan-19 00:13N 58°58' W 002°39'1011.9
2017-Jan-18 23:22N 58°60' W 002°58'0 0.5
2017-Jan-18 22:33N 59°00' W 002°58'98 3.8
2017-Jan-17 20:33N 57°32' W 001°37'2818.7
2017-Jan-17 19:05N 57°09' W 002°03'1 2.0
2017-Jan-17 18:33N 57°09' W 002°05'0 0.0
2017-Jan-17 17:33N 57°09' W 002°05'0 0.0
2017-Jan-17 16:33N 57°09' W 002°05'0 0.0
2017-Jan-17 15:33N 57°09' W 002°05'0 0.0
2017-Jan-17 14:33N 57°09' W 002°05'0 0.0
2017-Jan-17 13:33N 57°09' W 002°05'0 0.0
2017-Jan-17 12:33N 57°09' W 002°05'0 0.0
2017-Jan-17 11:33N 57°09' W 002°05'0 0.0
2017-Jan-17 10:33N 57°09' W 002°05'0 0.0
2017-Jan-17 09:33N 57°09' W 002°05'0 0.0
2017-Jan-17 08:34N 57°09' W 002°05'0 0.0
2017-Jan-17 07:33N 57°09' W 002°05'0 0.5
2017-Jan-17 06:33N 57°09' W 002°05'116 4.0
2017-Jan-16 01:10N 59°04' W 002°26'711.8
2017-Jan-16 00:33N 59°00' W 002°38'1110.6
2017-Jan-15 23:33N 58°60' W 002°58'0 0.2
2017-Jan-15 22:33N 59°00' W 002°58'9321.8
2017-Jan-15 18:18N 57°36' W 001°42'1723.1
2017-Jan-15 17:32N 57°19' W 001°50'1313.7
2017-Jan-15 16:33N 57°09' W 002°05'0 0.0
2017-Jan-15 15:33N 57°09' W 002°05'0 0.0
2017-Jan-15 14:33N 57°09' W 002°05'0 0.0
2017-Jan-15 13:33N 57°09' W 002°05'0 0.0
2017-Jan-15 12:33N 57°09' W 002°05'0 0.0
2017-Jan-15 11:33N 57°09' W 002°05'0 0.0
2017-Jan-15 10:33N 57°09' W 002°05'0 0.0
2017-Jan-15 09:33N 57°09' W 002°05'0 0.0
2017-Jan-15 08:33N 57°09' W 002°05'0 0.0
2017-Jan-15 07:33N 57°09' W 002°05'0 0.0
2017-Jan-15 06:33N 57°09' W 002°05'0 0.0
2017-Jan-15 05:33N 57°09' W 002°05'0 0.0
2017-Jan-15 04:33N 57°09' W 002°05'0 0.0
2017-Jan-15 03:33N 57°09' W 002°05'0 0.0
2017-Jan-15 02:33N 57°09' W 002°05'0 0.0
2017-Jan-15 01:33N 57°09' W 002°05'0 0.0
2017-Jan-15 00:33N 57°09' W 002°05'0 0.0
2017-Jan-14 23:33N 57°09' W 002°05'0 0.0
2017-Jan-14 22:33N 57°09' W 002°05'0 0.0
2017-Jan-14 21:33N 57°09' W 002°05'0 0.0
2017-Jan-14 20:33N 57°09' W 002°05'0 0.0
2017-Jan-14 19:33N 57°09' W 002°05'0 0.0
2017-Jan-14 18:33N 57°09' W 002°05'0 0.0
2017-Jan-14 17:33N 57°09' W 002°05'0 0.0
2017-Jan-14 16:33N 57°09' W 002°05'0 0.0
2017-Jan-14 15:33N 57°09' W 002°05'0 0.0
2017-Jan-14 14:33N 57°09' W 002°05'0 0.0
2017-Jan-14 13:33N 57°09' W 002°05'1 0.9
2017-Jan-14 12:33N 57°09' W 002°04'2423.4
2017-Jan-14 11:33N 57°28' W 001°38'9523.5
2017-Jan-14 07:29N 58°58' W 002°39'1011.2
2017-Jan-14 06:33N 58°60' W 002°58'0 0.2
2017-Jan-14 05:33N 59°00' W 002°58'29 1.2
2017-Jan-13 04:33N 58°35' W 002°30'68 7.5
2017-Jan-12 19:33N 57°33' W 001°37'2017.2
2017-Jan-12 18:22N 57°15' W 001°54'911.0
2017-Jan-12 17:33N 57°09' W 002°05'0 0.0
2017-Jan-12 16:34N 57°09' W 002°05'0 0.0
2017-Jan-12 15:33N 57°09' W 002°05'0 0.0
2017-Jan-12 14:33N 57°09' W 002°05'0 0.0
2017-Jan-12 13:33N 57°09' W 002°05'0 0.0
2017-Jan-12 12:33N 57°09' W 002°05'0 0.0
2017-Jan-12 11:33N 57°09' W 002°05'0 0.0
2017-Jan-12 10:33N 57°09' W 002°05'0 0.0
2017-Jan-12 09:33N 57°09' W 002°05'0 0.0
2017-Jan-12 08:33N 57°09' W 002°05'0 0.0
2017-Jan-12 07:33N 57°09' W 002°05'1 0.7
2017-Jan-12 06:33N 57°08' W 002°04'1614.9
2017-Jan-12 05:30N 57°21' W 001°47'10112.8
2017-Jan-11 21:33N 58°59' W 002°39'10 3.3
2017-Jan-11 18:33N 58°60' W 002°58'  
Track history (hours):
 
Tides and Currents Weather Stations Pressure Air Temp Water Temp Dewpoint Dewpoint Depression Visibility Wind Speed Wind Dir Waves Ship Positions

Hrossey

Operator: NorthLink Orkey & Shetland Ferries Ltd

Last reported at 2017-Jan-21 00:23 UTC. Time now 2017-Jan-21 04:27 UTC.
Position N 58°58' W 002°38'.

Length 125 m; draft 5.4 m.

Type: Passenger vessel. MMSI: 235448000.

Date/timePositionNaut miles runAvg speedWind from/ knotsBaromVisibWave heightAir tempDewpointWater temp
2017-Jan-21 00:23N 58°58' W 002°38'1112.4
2017-Jan-20 23:33N 58°60' W 002°58'0 0.0
2017-Jan-20 22:33N 58°60' W 002°58'16 0.8
2017-Jan-20 01:12N 59°04' W 002°28'913.4
2017-Jan-20 00:33N 59°01' W 002°43'8 7.8
2017-Jan-19 23:33N 58°60' W 002°58'4 4.2
2017-Jan-19 22:31N 59°01' W 002°50'9222.9
2017-Jan-19 18:29N 57°36' W 001°40'2320.8
2017-Jan-19 17:23N 57°15' W 001°54'810.2
2017-Jan-19 16:33N 57°09' W 002°05'0 0.0
2017-Jan-19 15:33N 57°09' W 002°05'0 0.0
2017-Jan-19 14:33N 57°09' W 002°05'0 0.0
2017-Jan-19 13:33N 57°09' W 002°05'0 0.0
2017-Jan-19 12:33N 57°09' W 002°05'0 0.0
2017-Jan-19 11:33N 57°09' W 002°05'0 0.0
2017-Jan-19 10:33N 57°09' W 002°05'0 0.0
2017-Jan-19 09:33N 57°09' W 002°05'0 0.0
2017-Jan-19 08:33N 57°09' W 002°05'0 0.0
2017-Jan-19 07:33N 57°09' W 002°05'0 0.5
2017-Jan-19 06:33N 57°09' W 002°05'1413.6
2017-Jan-19 05:33N 57°19' W 001°47'1515.2
2017-Jan-19 04:33N 57°33' W 001°40'9020.8
2017-Jan-19 00:13N 58°58' W 002°39'1011.9
2017-Jan-18 23:22N 58°60' W 002°58'0 0.5
2017-Jan-18 22:33N 59°00' W 002°58'98 3.8
2017-Jan-17 20:33N 57°32' W 001°37'2818.7
2017-Jan-17 19:05N 57°09' W 002°03'1 2.0
2017-Jan-17 18:33N 57°09' W 002°05'0 0.0
2017-Jan-17 17:33N 57°09' W 002°05'0 0.0
2017-Jan-17 16:33N 57°09' W 002°05'0 0.0
2017-Jan-17 15:33N 57°09' W 002°05'0 0.0
2017-Jan-17 14:33N 57°09' W 002°05'0 0.0
2017-Jan-17 13:33N 57°09' W 002°05'0 0.0
2017-Jan-17 12:33N 57°09' W 002°05'0 0.0
2017-Jan-17 11:33N 57°09' W 002°05'0 0.0
2017-Jan-17 10:33N 57°09' W 002°05'0 0.0
2017-Jan-17 09:33N 57°09' W 002°05'0 0.0
2017-Jan-17 08:34N 57°09' W 002°05'0 0.0
2017-Jan-17 07:33N 57°09' W 002°05'0 0.5
2017-Jan-17 06:33N 57°09' W 002°05'116 4.0
2017-Jan-16 01:10N 59°04' W 002°26'711.8
2017-Jan-16 00:33N 59°00' W 002°38'1110.6
2017-Jan-15 23:33N 58°60' W 002°58'0 0.2
2017-Jan-15 22:33N 59°00' W 002°58'9321.8
2017-Jan-15 18:18N 57°36' W 001°42'1723.1
2017-Jan-15 17:32N 57°19' W 001°50'1313.7
2017-Jan-15 16:33N 57°09' W 002°05'0 0.0
2017-Jan-15 15:33N 57°09' W 002°05'0 0.0
2017-Jan-15 14:33N 57°09' W 002°05'0 0.0
2017-Jan-15 13:33N 57°09' W 002°05'0 0.0
2017-Jan-15 12:33N 57°09' W 002°05'0 0.0
2017-Jan-15 11:33N 57°09' W 002°05'0 0.0
2017-Jan-15 10:33N 57°09' W 002°05'0 0.0
2017-Jan-15 09:33N 57°09' W 002°05'0 0.0
2017-Jan-15 08:33N 57°09' W 002°05'0 0.0
2017-Jan-15 07:33N 57°09' W 002°05'0 0.0
2017-Jan-15 06:33N 57°09' W 002°05'0 0.0
2017-Jan-15 05:33N 57°09' W 002°05'0 0.0
2017-Jan-15 04:33N 57°09' W 002°05'0 0.0
2017-Jan-15 03:33N 57°09' W 002°05'0 0.0
2017-Jan-15 02:33N 57°09' W 002°05'0 0.0
2017-Jan-15 01:33N 57°09' W 002°05'0 0.0
2017-Jan-15 00:33N 57°09' W 002°05'0 0.0
2017-Jan-14 23:33N 57°09' W 002°05'0 0.0
2017-Jan-14 22:33N 57°09' W 002°05'0 0.0
2017-Jan-14 21:33N 57°09' W 002°05'0 0.0
2017-Jan-14 20:33N 57°09' W 002°05'0 0.0
2017-Jan-14 19:33N 57°09' W 002°05'0 0.0
2017-Jan-14 18:33N 57°09' W 002°05'0 0.0
2017-Jan-14 17:33N 57°09' W 002°05'0 0.0
2017-Jan-14 16:33N 57°09' W 002°05'0 0.0
2017-Jan-14 15:33N 57°09' W 002°05'0 0.0
2017-Jan-14 14:33N 57°09' W 002°05'0 0.0
2017-Jan-14 13:33N 57°09' W 002°05'1 0.9
2017-Jan-14 12:33N 57°09' W 002°04'2423.4
2017-Jan-14 11:33N 57°28' W 001°38'9523.5
2017-Jan-14 07:29N 58°58' W 002°39'1011.2
2017-Jan-14 06:33N 58°60' W 002°58'0 0.2
2017-Jan-14 05:33N 59°00' W 002°58'29 1.2
2017-Jan-13 04:33N 58°35' W 002°30'68 7.5
2017-Jan-12 19:33N 57°33' W 001°37'2017.2
2017-Jan-12 18:22N 57°15' W 001°54'911.0
2017-Jan-12 17:33N 57°09' W 002°05'0 0.0
2017-Jan-12 16:34N 57°09' W 002°05'0 0.0
2017-Jan-12 15:33N 57°09' W 002°05'0 0.0
2017-Jan-12 14:33N 57°09' W 002°05'0 0.0
2017-Jan-12 13:33N 57°09' W 002°05'0 0.0
2017-Jan-12 12:33N 57°09' W 002°05'0 0.0
2017-Jan-12 11:33N 57°09' W 002°05'0 0.0
2017-Jan-12 10:33N 57°09' W 002°05'0 0.0
2017-Jan-12 09:33N 57°09' W 002°05'0 0.0
2017-Jan-12 08:33N 57°09' W 002°05'0 0.0
2017-Jan-12 07:33N 57°09' W 002°05'1 0.7
2017-Jan-12 06:33N 57°08' W 002°04'1614.9
2017-Jan-12 05:30N 57°21' W 001°47'10112.8
2017-Jan-11 21:33N 58°59' W 002°39'10 3.3
2017-Jan-11 18:33N 58°60' W 002°58'  

Dump ship's entire track history